This is the latest recevied weather packets stored in our database for station/object W5COG. If no packets are shown the sender has not sent any weather packets the latest 1 day(s).
| Time | Temp. | Humidity | Pressure | Rain* | Wind** | Luminosity | Snow |
|---|---|---|---|---|---|---|---|
| 1778027428 | 10° C | 72% | 1010 hPa | 0 mm | - | 8 W/m² | - |
| 1778027128 | 10° C | 72% | 1009.9 hPa | 0 mm | - | 14 W/m² | - |
| 1778026828 | 10° C | 72% | 1010 hPa | 0 mm | - | 19 W/m² | - |
| 1778026528 | 10° C | 73% | 1010 hPa | 0 mm | - | 22 W/m² | - |
| 1778026228 | 10° C | 71% | 1009.9 hPa | 0 mm | - | 28 W/m² | - |
| 1778025928 | 10° C | 72% | 1009.7 hPa | 0 mm | - | 32 W/m² | - |
| 1778025328 | 10.56° C | 71% | 1009.9 hPa | 0 mm | - | 27 W/m² | - |
| 1778025028 | 10.56° C | 71% | 1009.9 hPa | 0 mm | - | 27 W/m² | - |
| 1778024728 | 10.56° C | 70% | 1010 hPa | 0 mm | - | 23 W/m² | - |
| 1778023228 | 10.56° C | 70% | 1009.6 hPa | 0 mm | - | 26 W/m² | - |
| 1778020828 | 11.11° C | 68% | 1009 hPa | 0 mm | - | 65 W/m² | - |
| 1778018728 | 11.67° C | 66% | 1008.3 hPa | 0 mm | - | 109 W/m² | - |
| 1778018428 | 11.67° C | 65% | 1008.1 hPa | 0 mm | - | 120 W/m² | - |
| 1778018128 | 11.11° C | 66% | 1008.3 hPa | 0 mm | - | 153 W/m² | - |
| 1778017828 | 11.11° C | 67% | 1008.7 hPa | 0 mm | - | 96 W/m² | - |
| 1778017528 | 11.11° C | 67% | 1008.8 hPa | 0 mm | - | 75 W/m² | - |
| 1778017228 | 11.67° C | 67% | 1008.7 hPa | 0 mm | - | 68 W/m² | - |
| 1778016928 | 11.67° C | 67% | 1008.6 hPa | 0 mm | - | 96 W/m² | - |
| 1778016628 | 11.67° C | 67% | 1008.3 hPa | 0 mm | - | 116 W/m² | - |
| 1778016028 | 11.67° C | 68% | 1008.1 hPa | 0 mm | - | 139 W/m² | - |
| 1778015428 | 11.67° C | 67% | 1008.4 hPa | 0 mm | - | 132 W/m² | - |
| 1778014829 | 11.67° C | 68% | 1008.4 hPa | 0 mm | - | 108 W/m² | - |
| 1778014528 | 11.67° C | 70% | 1008 hPa | 0 mm | - | 117 W/m² | - |
| 1778013928 | 11.67° C | 69% | 1008.1 hPa | 0 mm | - | 112 W/m² | - |
| 1778013628 | 11.67° C | 68% | 1008.1 hPa | 0 mm | - | 121 W/m² | - |
* Rain latest hour (hover to see other rain measurements)
** Current wind speed in m/s (hover to see current wind gust speed)